sensor_id;sensor_type;location;lat;lon;timestamp;pressure;altitude;pressure_sealevel;temperature;humidity
50384;BME280;36301;48.310;12.786;2022-08-19T00:01:57;95710.03;;;18.12;100.00
50384;BME280;36301;48.310;12.786;2022-08-19T00:04:31;95709.84;;;18.20;100.00
50384;BME280;36301;48.310;12.786;2022-08-19T00:06:59;95700.53;;;18.24;100.00
50384;BME280;36301;48.310;12.786;2022-08-19T00:09:27;95707.66;;;18.31;100.00
50384;BME280;36301;48.310;12.786;2022-08-19T00:11:54;95711.03;;;18.35;100.00
50384;BME280;36301;48.310;12.786;2022-08-19T00:14:22;95716.38;;;18.35;100.00
50384;BME280;36301;48.310;12.786;2022-08-19T00:16:50;95705.81;;;18.28;100.00
50384;BME280;36301;48.310;12.786;2022-08-19T00:19:21;95687.66;;;18.19;100.00
50384;BME280;36301;48.310;12.786;2022-08-19T00:21:47;95691.44;;;18.22;100.00
50384;BME280;36301;48.310;12.786;2022-08-19T00:24:15;95693.59;;;18.27;100.00
50384;BME280;36301;48.310;12.786;2022-08-19T00:26:43;95669.25;;;18.21;100.00
50384;BME280;36301;48.310;12.786;2022-08-19T00:29:13;95669.06;;;18.28;100.00
50384;BME280;36301;48.310;12.786;2022-08-19T00:31:40;95699.19;;;18.32;100.00
50384;BME280;36301;48.310;12.786;2022-08-19T00:34:09;95700.94;;;18.39;100.00
50384;BME280;36301;48.310;12.786;2022-08-19T00:36:36;95706.41;;;18.35;100.00
50384;BME280;36301;48.310;12.786;2022-08-19T00:39:04;95707.03;;;18.39;100.00
50384;BME280;36301;48.310;12.786;2022-08-19T00:41:30;95705.47;;;18.42;100.00
50384;BME280;36301;48.310;12.786;2022-08-19T00:44:19;95686.50;;;18.49;100.00
50384;BME280;36301;48.310;12.786;2022-08-19T00:46:54;95680.50;;;18.45;100.00
50384;BME280;36301;48.310;12.786;2022-08-19T00:51:59;95680.75;;;18.51;100.00
50384;BME280;36301;48.310;12.786;2022-08-19T00:54:28;95672.63;;;18.38;100.00
50384;BME280;36301;48.310;12.786;2022-08-19T00:56:58;95673.91;;;18.33;100.00
50384;BME280;36301;48.310;12.786;2022-08-19T00:59:27;95683.03;;;18.36;100.00
50384;BME280;36301;48.310;12.786;2022-08-19T01:02:15;95693.13;;;18.45;100.00
50384;BME280;36301;48.310;12.786;2022-08-19T01:04:42;95703.09;;;18.44;100.00
50384;BME280;36301;48.310;12.786;2022-08-19T01:07:09;95678.34;;;18.40;100.00
50384;BME280;36301;48.310;12.786;2022-08-19T01:09:40;95682.84;;;18.43;100.00
50384;BME280;36301;48.310;12.786;2022-08-19T01:12:07;95689.84;;;18.53;100.00
50384;BME280;36301;48.310;12.786;2022-08-19T01:14:36;95689.38;;;18.42;100.00
50384;BME280;36301;48.310;12.786;2022-08-19T01:17:06;95683.81;;;18.49;100.00
50384;BME280;36301;48.310;12.786;2022-08-19T01:19:37;95681.84;;;18.37;100.00
50384;BME280;36301;48.310;12.786;2022-08-19T01:22:18;95689.19;;;18.49;100.00
50384;BME280;36301;48.310;12.786;2022-08-19T01:24:55;95691.03;;;18.52;99.57
50384;BME280;36301;48.310;12.786;2022-08-19T01:27:24;95681.13;;;18.49;100.00
50384;BME280;36301;48.310;12.786;2022-08-19T01:29:51;95672.97;;;18.40;100.00
50384;BME280;36301;48.310;12.786;2022-08-19T01:32:18;95679.31;;;18.46;100.00
50384;BME280;36301;48.310;12.786;2022-08-19T01:34:59;95691.88;;;18.49;100.00
50384;BME280;36301;48.310;12.786;2022-08-19T01:37:28;95691.63;;;18.44;100.00
50384;BME280;36301;48.310;12.786;2022-08-19T01:39:55;95698.41;;;18.48;100.00
50384;BME280;36301;48.310;12.786;2022-08-19T01:42:22;95705.47;;;18.42;100.00
50384;BME280;36301;48.310;12.786;2022-08-19T01:44:56;95704.72;;;18.41;100.00
50384;BME280;36301;48.310;12.786;2022-08-19T01:47:22;95717.69;;;18.43;100.00
50384;BME280;36301;48.310;12.786;2022-08-19T01:49:49;95717.25;;;18.45;100.00
50384;BME280;36301;48.310;12.786;2022-08-19T01:52:15;95730.28;;;18.59;99.10
50384;BME280;36301;48.310;12.786;2022-08-19T01:54:42;95727.38;;;18.53;99.75
50384;BME280;36301;48.310;12.786;2022-08-19T01:57:10;95724.47;;;18.48;99.58
50384;BME280;36301;48.310;12.786;2022-08-19T01:59:40;95711.34;;;18.37;99.91
50384;BME280;36301;48.310;12.786;2022-08-19T02:02:07;95710.75;;;18.46;99.74
50384;BME280;36301;48.310;12.786;2022-08-19T02:04:35;95706.44;;;18.48;99.54
50384;BME280;36301;48.310;12.786;2022-08-19T02:07:04;95706.97;;;18.43;100.00
50384;BME280;36301;48.310;12.786;2022-08-19T02:09:32;95703.63;;;18.39;100.00
50384;BME280;36301;48.310;12.786;2022-08-19T02:11:58;95702.47;;;18.40;100.00
50384;BME280;36301;48.310;12.786;2022-08-19T02:14:25;95700.94;;;18.39;100.00
50384;BME280;36301;48.310;12.786;2022-08-19T02:16:52;95698.88;;;18.30;100.00
50384;BME280;36301;48.310;12.786;2022-08-19T02:19:18;95719.19;;;18.44;100.00
50384;BME280;36301;48.310;12.786;2022-08-19T02:21:45;95732.81;;;18.50;99.79
50384;BME280;36301;48.310;12.786;2022-08-19T02:24:11;95739.13;;;18.43;100.00
50384;BME280;36301;48.310;12.786;2022-08-19T02:26:38;95738.56;;;18.35;100.00
50384;BME280;36301;48.310;12.786;2022-08-19T02:29:05;95743.41;;;18.40;100.00
50384;BME280;36301;48.310;12.786;2022-08-19T02:31:32;95744.56;;;18.39;100.00
50384;BME280;36301;48.310;12.786;2022-08-19T02:33:59;95744.69;;;18.36;100.00
50384;BME280;36301;48.310;12.786;2022-08-19T02:36:27;95741.50;;;18.41;100.00
50384;BME280;36301;48.310;12.786;2022-08-19T02:38:55;95743.66;;;18.46;100.00
50384;BME280;36301;48.310;12.786;2022-08-19T02:41:25;95754.03;;;18.44;100.00
50384;BME280;36301;48.310;12.786;2022-08-19T02:43:54;95740.31;;;18.42;99.99
50384;BME280;36301;48.310;12.786;2022-08-19T02:46:40;95735.94;;;18.48;100.00
50384;BME280;36301;48.310;12.786;2022-08-19T02:49:07;95724.91;;;18.46;99.81
50384;BME280;36301;48.310;12.786;2022-08-19T02:51:41;95725.56;;;18.50;99.93
50384;BME280;36301;48.310;12.786;2022-08-19T02:54:11;95712.25;;;18.47;99.67
50384;BME280;36301;48.310;12.786;2022-08-19T02:56:40;95727.38;;;18.53;99.77
50384;BME280;36301;48.310;12.786;2022-08-19T02:59:07;95729.41;;;18.49;99.91
50384;BME280;36301;48.310;12.786;2022-08-19T03:01:38;95726.81;;;18.46;100.00
50384;BME280;36301;48.310;12.786;2022-08-19T03:04:06;95721.22;;;18.40;100.00
50384;BME280;36301;48.310;12.786;2022-08-19T03:06:37;95724.97;;;18.42;100.00
50384;BME280;36301;48.310;12.786;2022-08-19T03:09:03;95720.38;;;18.43;99.89
50384;BME280;36301;48.310;12.786;2022-08-19T03:11:31;95718.44;;;18.44;100.00
50384;BME280;36301;48.310;12.786;2022-08-19T03:13:59;95717.69;;;18.43;100.00
50384;BME280;36301;48.310;12.786;2022-08-19T03:16:28;95728.59;;;18.36;100.00
50384;BME280;36301;48.310;12.786;2022-08-19T03:19:00;95705.50;;;18.26;100.00
50384;BME280;36301;48.310;12.786;2022-08-19T03:21:30;95713.44;;;18.29;100.00
50384;BME280;36301;48.310;12.786;2022-08-19T03:24:01;95720.31;;;18.30;100.00
50384;BME280;36301;48.310;12.786;2022-08-19T03:26:28;95739.81;;;18.31;100.00
50384;BME280;36301;48.310;12.786;2022-08-19T03:28:56;95753.78;;;18.38;100.00
50384;BME280;36301;48.310;12.786;2022-08-19T03:31:25;95752.22;;;18.41;100.00
50384;BME280;36301;48.310;12.786;2022-08-19T03:34:23;95758.41;;;18.38;100.00
50384;BME280;36301;48.310;12.786;2022-08-19T03:36:57;95752.38;;;18.34;100.00
50384;BME280;36301;48.310;12.786;2022-08-19T03:39:24;95741.81;;;18.43;100.00
50384;BME280;36301;48.310;12.786;2022-08-19T03:41:52;95771.03;;;18.54;100.00
50384;BME280;36301;48.310;12.786;2022-08-19T03:44:39;95759.63;;;18.50;100.00
50384;BME280;36301;48.310;12.786;2022-08-19T03:47:08;95760.72;;;18.52;100.00
50384;BME280;36301;48.310;12.786;2022-08-19T03:49:34;95756.56;;;18.51;100.00
50384;BME280;36301;48.310;12.786;2022-08-19T03:52:02;95761.56;;;18.49;100.00
50384;BME280;36301;48.310;12.786;2022-08-19T03:54:31;95773.19;;;18.59;100.00
50384;BME280;36301;48.310;12.786;2022-08-19T03:56:58;95780.56;;;18.55;100.00
50384;BME280;36301;48.310;12.786;2022-08-19T03:59:28;95790.97;;;18.53;100.00
50384;BME280;36301;48.310;12.786;2022-08-19T04:01:57;95791.16;;;18.46;100.00
50384;BME280;36301;48.310;12.786;2022-08-19T04:04:24;95803.88;;;18.41;100.00
50384;BME280;36301;48.310;12.786;2022-08-19T04:06:55;95811.56;;;18.39;100.00
50384;BME280;36301;48.310;12.786;2022-08-19T04:09:22;95801.38;;;18.34;100.00
50384;BME280;36301;48.310;12.786;2022-08-19T04:11:51;95795.59;;;18.36;100.00
50384;BME280;36301;48.310;12.786;2022-08-19T04:14:26;95799.28;;;18.42;100.00
50384;BME280;36301;48.310;12.786;2022-08-19T04:16:55;95805.47;;;18.39;100.00
50384;BME280;36301;48.310;12.786;2022-08-19T04:19:21;95797.19;;;18.33;100.00
50384;BME280;36301;48.310;12.786;2022-08-19T04:21:51;95796.09;;;18.31;100.00
50384;BME280;36301;48.310;12.786;2022-08-19T04:24:19;95793.91;;;18.42;99.85
50384;BME280;36301;48.310;12.786;2022-08-19T04:26:47;95778.34;;;18.37;100.00
50384;BME280;36301;48.310;12.786;2022-08-19T04:29:17;95793.84;;;18.46;100.00
50384;BME280;36301;48.310;12.786;2022-08-19T04:31:45;95792.81;;;18.39;100.00
50384;BME280;36301;48.310;12.786;2022-08-19T04:34:13;95807.66;;;18.44;99.97
50384;BME280;36301;48.310;12.786;2022-08-19T04:36:42;95794.59;;;18.46;99.74
50384;BME280;36301;48.310;12.786;2022-08-19T04:39:14;95795.59;;;18.52;99.87
50384;BME280;36301;48.310;12.786;2022-08-19T04:41:42;95804.69;;;18.55;98.86
50384;BME280;36301;48.310;12.786;2022-08-19T04:44:27;95812.84;;;18.51;99.41
50384;BME280;36301;48.310;12.786;2022-08-19T04:46:58;95820.88;;;18.51;99.22
50384;BME280;36301;48.310;12.786;2022-08-19T04:49:26;95820.88;;;18.51;99.47
50384;BME280;36301;48.310;12.786;2022-08-19T04:51:54;95822.47;;;18.49;99.62
50384;BME280;36301;48.310;12.786;2022-08-19T04:54:23;95827.81;;;18.49;100.00
50384;BME280;36301;48.310;12.786;2022-08-19T04:57:05;95827.94;;;18.45;99.30
50384;BME280;36301;48.310;12.786;2022-08-19T04:59:34;95831.59;;;18.51;99.65
50384;BME280;36301;48.310;12.786;2022-08-19T05:02:00;95827.66;;;18.39;100.00
50384;BME280;36301;48.310;12.786;2022-08-19T05:04:27;95835.97;;;18.29;100.00
50384;BME280;36301;48.310;12.786;2022-08-19T05:06:59;95848.84;;;18.34;100.00
50384;BME280;36301;48.310;12.786;2022-08-19T05:09:28;95841.25;;;18.32;100.00
50384;BME280;36301;48.310;12.786;2022-08-19T05:12:15;95830.03;;;18.21;100.00
50384;BME280;36301;48.310;12.786;2022-08-19T05:14:42;95832.44;;;18.32;100.00
50384;BME280;36301;48.310;12.786;2022-08-19T05:17:09;95827.41;;;18.34;100.00
50384;BME280;36301;48.310;12.786;2022-08-19T05:19:54;95822.47;;;18.49;100.00
50384;BME280;36301;48.310;12.786;2022-08-19T05:22:41;95813.41;;;18.59;99.82
50384;BME280;36301;48.310;12.786;2022-08-19T05:25:12;95804.63;;;18.58;99.50
50384;BME280;36301;48.310;12.786;2022-08-19T05:27:41;95787.00;;;18.74;98.62
50384;BME280;36301;48.310;12.786;2022-08-19T05:30:08;95786.97;;;18.90;97.50
50384;BME280;36301;48.310;12.786;2022-08-19T05:32:35;95776.06;;;18.97;97.41
50384;BME280;36301;48.310;12.786;2022-08-19T05:35:03;95772.94;;;18.99;96.10
50384;BME280;36301;48.310;12.786;2022-08-19T05:37:29;95778.91;;;18.90;97.03
50384;BME280;36301;48.310;12.786;2022-08-19T05:39:56;95775.41;;;18.93;96.40
50384;BME280;36301;48.310;12.786;2022-08-19T05:42:23;95778.09;;;18.93;97.24
50384;BME280;36301;48.310;12.786;2022-08-19T05:44:50;95772.06;;;18.89;97.29
50384;BME280;36301;48.310;12.786;2022-08-19T05:47:17;95771.22;;;18.92;97.67
50384;BME280;36301;48.310;12.786;2022-08-19T05:49:47;95779.06;;;18.99;97.19
50384;BME280;36301;48.310;12.786;2022-08-19T05:52:14;95777.56;;;18.98;97.92
50384;BME280;36301;48.310;12.786;2022-08-19T05:54:45;95779.72;;;19.03;97.26
50384;BME280;36301;48.310;12.786;2022-08-19T05:57:18;95760.50;;;19.05;97.01
50384;BME280;36301;48.310;12.786;2022-08-19T05:59:44;95760.88;;;19.19;97.15
50384;BME280;36301;48.310;12.786;2022-08-19T06:02:24;95763.78;;;19.25;96.96
50384;BME280;36301;48.310;12.786;2022-08-19T06:04:51;95762.72;;;19.35;96.36
50384;BME280;36301;48.310;12.786;2022-08-19T06:07:17;95764.78;;;19.44;95.95
50384;BME280;36301;48.310;12.786;2022-08-19T06:09:44;95771.00;;;19.28;97.25
50384;BME280;36301;48.310;12.786;2022-08-19T06:12:27;95760.56;;;19.30;97.51
50384;BME280;36301;48.310;12.786;2022-08-19T06:14:55;95754.34;;;19.33;96.99
50384;BME280;36301;48.310;12.786;2022-08-19T06:17:27;95748.44;;;19.26;96.31
50384;BME280;36301;48.310;12.786;2022-08-19T06:19:57;95742.88;;;19.33;95.99
50384;BME280;36301;48.310;12.786;2022-08-19T06:22:24;95752.31;;;19.37;96.09
50384;BME280;36301;48.310;12.786;2022-08-19T06:24:51;95775.16;;;19.29;96.02
50384;BME280;36301;48.310;12.786;2022-08-19T06:27:20;95766.06;;;19.27;96.29
50384;BME280;36301;48.310;12.786;2022-08-19T06:29:47;95770.03;;;19.35;96.33
50384;BME280;36301;48.310;12.786;2022-08-19T06:32:15;95779.78;;;19.29;96.31
50384;BME280;36301;48.310;12.786;2022-08-19T06:34:42;95769.72;;;19.33;95.49
50384;BME280;36301;48.310;12.786;2022-08-19T06:37:09;95779.16;;;19.37;95.94
50384;BME280;36301;48.310;12.786;2022-08-19T06:39:37;95772.63;;;19.38;95.67
50384;BME280;36301;48.310;12.786;2022-08-19T06:42:06;95784.19;;;19.35;95.21
50384;BME280;36301;48.310;12.786;2022-08-19T06:44:36;95791.94;;;19.33;95.34
50384;BME280;36301;48.310;12.786;2022-08-19T06:47:13;95804.44;;;19.53;94.64
50384;BME280;36301;48.310;12.786;2022-08-19T06:49:55;95796.75;;;19.67;94.19
50384;BME280;36301;48.310;12.786;2022-08-19T06:52:30;95799.53;;;19.89;92.76
50384;BME280;36301;48.310;12.786;2022-08-19T06:55:00;95792.31;;;19.86;91.83
50384;BME280;36301;48.310;12.786;2022-08-19T06:57:31;95797.50;;;19.93;91.81
50384;BME280;36301;48.310;12.786;2022-08-19T06:59:58;95807.28;;;20.13;91.47
50384;BME280;36301;48.310;12.786;2022-08-19T07:02:26;95799.06;;;20.29;89.98
50384;BME280;36301;48.310;12.786;2022-08-19T07:04:53;95799.81;;;20.30;89.36
50384;BME280;36301;48.310;12.786;2022-08-19T07:07:21;95781.31;;;20.32;89.06
50384;BME280;36301;48.310;12.786;2022-08-19T07:09:50;95789.91;;;20.52;88.63
50384;BME280;36301;48.310;12.786;2022-08-19T07:12:28;95793.47;;;20.49;88.85
50384;BME280;36301;48.310;12.786;2022-08-19T07:14:57;95794.31;;;20.46;88.25
50384;BME280;36301;48.310;12.786;2022-08-19T07:17:24;95798.72;;;20.40;89.30
50384;BME280;36301;48.310;12.786;2022-08-19T07:19:51;95796.38;;;20.29;89.58
50384;BME280;36301;48.310;12.786;2022-08-19T07:22:21;95795.50;;;20.32;89.68
50384;BME280;36301;48.310;12.786;2022-08-19T07:24:50;95789.84;;;20.17;89.95
50384;BME280;36301;48.310;12.786;2022-08-19T07:27:18;95796.53;;;20.13;90.03
50384;BME280;36301;48.310;12.786;2022-08-19T07:29:52;95787.56;;;20.29;89.80
50384;BME280;36301;48.310;12.786;2022-08-19T07:32:23;95777.78;;;20.35;89.07
50384;BME280;36301;48.310;12.786;2022-08-19T07:34:52;95771.28;;;20.45;87.61
50384;BME280;36301;48.310;12.786;2022-08-19T07:37:19;95760.66;;;20.54;87.79
50384;BME280;36301;48.310;12.786;2022-08-19T07:39:45;95757.38;;;20.94;85.77
50384;BME280;36301;48.310;12.786;2022-08-19T07:42:12;95762.81;;;20.81;85.75
50384;BME280;36301;48.310;12.786;2022-08-19T07:44:40;95765.03;;;20.61;87.40
50384;BME280;36301;48.310;12.786;2022-08-19T07:47:15;95764.78;;;20.33;88.58
50384;BME280;36301;48.310;12.786;2022-08-19T07:50:05;95764.16;;;20.04;90.11
50384;BME280;36301;48.310;12.786;2022-08-19T07:52:33;95767.38;;;20.11;89.86
50384;BME280;36301;48.310;12.786;2022-08-19T07:55:00;95754.63;;;20.03;90.06
50384;BME280;36301;48.310;12.786;2022-08-19T07:57:29;95744.16;;;20.17;89.91
50384;BME280;36301;48.310;12.786;2022-08-19T07:59:56;95752.38;;;20.49;88.82
50384;BME280;36301;48.310;12.786;2022-08-19T08:02:23;95747.09;;;20.80;87.42
50384;BME280;36301;48.310;12.786;2022-08-19T08:04:49;95750.69;;;20.98;86.07
50384;BME280;36301;48.310;12.786;2022-08-19T08:07:34;95757.56;;;20.99;86.36
50384;BME280;36301;48.310;12.786;2022-08-19T08:10:19;95767.81;;;20.92;85.95
50384;BME280;36301;48.310;12.786;2022-08-19T08:12:49;95792.47;;;20.90;85.94
50384;BME280;36301;48.310;12.786;2022-08-19T08:15:36;95792.97;;;20.76;86.77
50384;BME280;36301;48.310;12.786;2022-08-19T08:18:09;95789.44;;;20.66;87.19
50384;BME280;36301;48.310;12.786;2022-08-19T08:20:37;95787.56;;;20.76;87.15
50384;BME280;36301;48.310;12.786;2022-08-19T08:23:03;95783.50;;;20.71;86.95
50384;BME280;36301;48.310;12.786;2022-08-19T08:25:48;95770.22;;;20.42;87.66
50384;BME280;36301;48.310;12.786;2022-08-19T08:28:16;95784.66;;;20.49;87.92
50384;BME280;36301;48.310;12.786;2022-08-19T08:30:44;95785.59;;;20.42;88.47
50384;BME280;36301;48.310;12.786;2022-08-19T08:33:21;95786.78;;;20.41;88.37
50384;BME280;36301;48.310;12.786;2022-08-19T08:36:09;95799.19;;;20.38;89.25
50384;BME280;36301;48.310;12.786;2022-08-19T08:38:37;95785.09;;;20.34;89.15
50384;BME280;36301;48.310;12.786;2022-08-19T08:44:18;95787.22;;;20.39;89.13
50384;BME280;36301;48.310;12.786;2022-08-19T08:46:50;95794.22;;;20.50;88.73
50384;BME280;36301;48.310;12.786;2022-08-19T08:49:45;95787.00;;;20.46;89.04
50384;BME280;36301;48.310;12.786;2022-08-19T08:52:31;95800.03;;;20.48;89.05
50384;BME280;36301;48.310;12.786;2022-08-19T08:55:11;95795.91;;;20.56;87.88
50384;BME280;36301;48.310;12.786;2022-08-19T08:57:56;95799.13;;;20.64;87.00
50384;BME280;36301;48.310;12.786;2022-08-19T09:00:28;95801.66;;;20.80;87.21
50384;BME280;36301;48.310;12.786;2022-08-19T09:02:57;95801.63;;;21.37;85.45
50384;BME280;36301;48.310;12.786;2022-08-19T09:05:35;95797.75;;;21.69;82.44
50384;BME280;36301;48.310;12.786;2022-08-19T09:08:27;95806.50;;;22.13;81.42
50384;BME280;36301;48.310;12.786;2022-08-19T09:10:57;95801.50;;;22.52;79.04
50384;BME280;36301;48.310;12.786;2022-08-19T09:16:10;95806.16;;;22.51;77.82
50384;BME280;36301;48.310;12.786;2022-08-19T09:18:50;95795.31;;;22.33;78.24
50384;BME280;36301;48.310;12.786;2022-08-19T09:21:21;95803.91;;;22.77;77.96
50384;BME280;36301;48.310;12.786;2022-08-19T09:23:55;95795.81;;;23.23;76.03
50384;BME280;36301;48.310;12.786;2022-08-19T09:26:25;95789.06;;;23.28;74.91
50384;BME280;36301;48.310;12.786;2022-08-19T09:29:12;95782.47;;;23.80;73.56
50384;BME280;36301;48.310;12.786;2022-08-19T09:31:39;95790.78;;;24.34;70.75
50384;BME280;36301;48.310;12.786;2022-08-19T09:34:06;95796.22;;;24.58;69.49
50384;BME280;36301;48.310;12.786;2022-08-19T09:36:46;95791.63;;;25.56;65.28
50384;BME280;36301;48.310;12.786;2022-08-19T09:39:13;95786.88;;;24.98;67.07
50384;BME280;36301;48.310;12.786;2022-08-19T09:41:41;95794.28;;;24.25;69.62
50384;BME280;36301;48.310;12.786;2022-08-19T09:44:14;95799.00;;;24.16;69.94
50384;BME280;36301;48.310;12.786;2022-08-19T09:46:41;95796.81;;;24.38;68.30
50384;BME280;36301;48.310;12.786;2022-08-19T09:49:07;95796.38;;;24.30;69.40
50384;BME280;36301;48.310;12.786;2022-08-19T09:51:34;95798.13;;;24.10;69.35
50384;BME280;36301;48.310;12.786;2022-08-19T09:54:02;95798.78;;;23.95;70.18
50384;BME280;36301;48.310;12.786;2022-08-19T09:56:31;95798.31;;;23.64;72.05
50384;BME280;36301;48.310;12.786;2022-08-19T09:59:00;95806.31;;;23.30;73.48
50384;BME280;36301;48.310;12.786;2022-08-19T10:01:29;95806.34;;;23.12;73.25
50384;BME280;36301;48.310;12.786;2022-08-19T10:03:58;95813.38;;;22.82;74.96
50384;BME280;36301;48.310;12.786;2022-08-19T10:06:27;95817.69;;;22.52;75.96
50384;BME280;36301;48.310;12.786;2022-08-19T10:09:13;95822.44;;;22.39;77.24
50384;BME280;36301;48.310;12.786;2022-08-19T10:11:42;95821.25;;;22.31;75.82
50384;BME280;36301;48.310;12.786;2022-08-19T10:14:18;95812.22;;;22.24;76.44
50384;BME280;36301;48.310;12.786;2022-08-19T10:16:48;95807.78;;;22.58;74.91
50384;BME280;36301;48.310;12.786;2022-08-19T10:19:15;95794.03;;;22.84;73.89
50384;BME280;36301;48.310;12.786;2022-08-19T10:21:52;95793.59;;;22.76;75.98
50384;BME280;36301;48.310;12.786;2022-08-19T10:24:19;95792.34;;;22.59;75.27
50384;BME280;36301;48.310;12.786;2022-08-19T10:26:46;95797.31;;;22.69;76.13
50384;BME280;36301;48.310;12.786;2022-08-19T10:29:24;95786.66;;;22.75;75.53
50384;BME280;36301;48.310;12.786;2022-08-19T10:32:03;95773.13;;;23.39;73.23
50384;BME280;36301;48.310;12.786;2022-08-19T10:34:37;95772.47;;;24.77;69.91
50384;BME280;36301;48.310;12.786;2022-08-19T10:37:15;95773.56;;;25.68;66.15
50384;BME280;36301;48.310;12.786;2022-08-19T10:39:54;95781.13;;;26.29;62.58
50384;BME280;36301;48.310;12.786;2022-08-19T10:42:21;95780.75;;;26.01;63.05
50384;BME280;36301;48.310;12.786;2022-08-19T10:44:47;95776.50;;;25.35;63.48
50384;BME280;36301;48.310;12.786;2022-08-19T10:47:17;95770.47;;;25.01;64.89
50384;BME280;36301;48.310;12.786;2022-08-19T10:49:52;95772.38;;;25.10;65.97
50384;BME280;36301;48.310;12.786;2022-08-19T10:52:40;95776.84;;;25.13;64.18
50384;BME280;36301;48.310;12.786;2022-08-19T10:55:18;95772.84;;;24.70;66.87
50384;BME280;36301;48.310;12.786;2022-08-19T10:58:03;95763.88;;;24.78;66.01
50384;BME280;36301;48.310;12.786;2022-08-19T11:00:30;95759.41;;;24.75;67.35
50384;BME280;36301;48.310;12.786;2022-08-19T11:02:58;95752.84;;;24.67;67.36
50384;BME280;36301;48.310;12.786;2022-08-19T11:05:24;95761.78;;;24.58;66.63
50384;BME280;36301;48.310;12.786;2022-08-19T11:07:51;95751.25;;;24.61;66.93
50384;BME280;36301;48.310;12.786;2022-08-19T11:10:18;95755.59;;;24.58;67.31
50384;BME280;36301;48.310;12.786;2022-08-19T11:12:47;95753.53;;;24.53;67.66
50384;BME280;36301;48.310;12.786;2022-08-19T11:15:14;95762.94;;;24.19;68.58
50384;BME280;36301;48.310;12.786;2022-08-19T11:17:41;95751.59;;;24.29;68.90
50384;BME280;36301;48.310;12.786;2022-08-19T11:20:11;95747.22;;;24.56;67.83
50384;BME280;36301;48.310;12.786;2022-08-19T11:22:39;95761.34;;;25.14;65.38
50384;BME280;36301;48.310;12.786;2022-08-19T11:25:08;95752.84;;;25.65;64.54
50384;BME280;36301;48.310;12.786;2022-08-19T11:27:40;95751.06;;;25.18;63.76
50384;BME280;36301;48.310;12.786;2022-08-19T11:30:12;95749.66;;;25.52;64.47
50384;BME280;36301;48.310;12.786;2022-08-19T11:32:41;95751.63;;;25.36;64.02
50384;BME280;36301;48.310;12.786;2022-08-19T11:35:15;95749.53;;;25.02;64.69
50384;BME280;36301;48.310;12.786;2022-08-19T11:37:42;95744.72;;;25.21;64.30
50384;BME280;36301;48.310;12.786;2022-08-19T11:40:09;95729.22;;;25.36;63.72
50384;BME280;36301;48.310;12.786;2022-08-19T11:42:36;95738.72;;;25.61;62.95
50384;BME280;36301;48.310;12.786;2022-08-19T11:45:27;95735.50;;;25.92;61.58
50384;BME280;36301;48.310;12.786;2022-08-19T11:47:54;95744.75;;;26.41;60.85
50384;BME280;36301;48.310;12.786;2022-08-19T11:50:21;95732.38;;;26.20;60.67
50384;BME280;36301;48.310;12.786;2022-08-19T11:52:50;95744.47;;;25.83;60.61
50384;BME280;36301;48.310;12.786;2022-08-19T11:55:20;95747.63;;;25.97;61.37
50384;BME280;36301;48.310;12.786;2022-08-19T11:57:46;95746.03;;;26.25;61.46
50384;BME280;36301;48.310;12.786;2022-08-19T12:00:13;95739.34;;;26.21;60.74
50384;BME280;36301;48.310;12.786;2022-08-19T12:02:40;95729.75;;;26.25;60.66
50384;BME280;36301;48.310;12.786;2022-08-19T12:05:07;95739.44;;;26.11;59.04
50384;BME280;36301;48.310;12.786;2022-08-19T12:07:37;95739.78;;;26.19;59.86
50384;BME280;36301;48.310;12.786;2022-08-19T12:10:05;95740.19;;;26.12;60.89
50384;BME280;36301;48.310;12.786;2022-08-19T12:12:33;95729.94;;;25.51;60.24
50384;BME280;36301;48.310;12.786;2022-08-19T12:15:00;95743.88;;;25.29;62.44
50384;BME280;36301;48.310;12.786;2022-08-19T12:17:26;95740.22;;;25.32;62.91
50384;BME280;36301;48.310;12.786;2022-08-19T12:19:53;95735.47;;;25.27;61.34
50384;BME280;36301;48.310;12.786;2022-08-19T12:22:20;95740.03;;;25.36;61.82
50384;BME280;36301;48.310;12.786;2022-08-19T12:24:48;95739.66;;;25.28;62.36
50384;BME280;36301;48.310;12.786;2022-08-19T12:27:17;95743.78;;;25.39;62.19
50384;BME280;36301;48.310;12.786;2022-08-19T12:30:04;95736.84;;;25.52;60.79
50384;BME280;36301;48.310;12.786;2022-08-19T12:32:31;95731.22;;;25.85;61.24
50384;BME280;36301;48.310;12.786;2022-08-19T12:34:58;95738.16;;;25.57;61.57
50384;BME280;36301;48.310;12.786;2022-08-19T12:37:25;95747.88;;;25.34;63.00
50384;BME280;36301;48.310;12.786;2022-08-19T12:39:51;95747.44;;;25.35;63.08
50384;BME280;36301;48.310;12.786;2022-08-19T12:42:18;95740.59;;;25.55;63.17
50384;BME280;36301;48.310;12.786;2022-08-19T12:44:45;95741.81;;;25.39;62.87
50384;BME280;36301;48.310;12.786;2022-08-19T12:47:12;95749.75;;;25.28;62.43
50384;BME280;36301;48.310;12.786;2022-08-19T12:49:41;95746.31;;;25.42;62.91
50384;BME280;36301;48.310;12.786;2022-08-19T12:52:18;95746.72;;;25.85;61.36
50384;BME280;36301;48.310;12.786;2022-08-19T12:54:49;95742.44;;;25.63;61.38
50384;BME280;36301;48.310;12.786;2022-08-19T12:57:21;95749.94;;;25.54;62.49
50384;BME280;36301;48.310;12.786;2022-08-19T12:59:52;95742.84;;;25.56;61.58
50384;BME280;36301;48.310;12.786;2022-08-19T13:02:22;95741.34;;;25.41;62.35
50384;BME280;36301;48.310;12.786;2022-08-19T13:04:48;95755.25;;;25.19;62.67
50384;BME280;36301;48.310;12.786;2022-08-19T13:07:15;95747.34;;;25.45;62.09
50384;BME280;36301;48.310;12.786;2022-08-19T13:09:41;95753.84;;;25.08;63.02
50384;BME280;36301;48.310;12.786;2022-08-19T13:12:09;95746.53;;;24.85;63.66
50384;BME280;36301;48.310;12.786;2022-08-19T13:14:39;95745.09;;;24.60;65.44